sensor_id;sensor_type;location;lat;lon;timestamp;pressure;altitude;pressure_sealevel;temperature;humidity
24031;BME280;12240;51.142;22.486;2023-02-22T00:02:05;99088.19;;;2.88;100.00
24031;BME280;12240;51.142;22.486;2023-02-22T00:04:52;99074.88;;;2.79;100.00
24031;BME280;12240;51.142;22.486;2023-02-22T00:07:21;99042.16;;;2.59;100.00
24031;BME280;12240;51.142;22.486;2023-02-22T00:09:50;99042.28;;;2.58;100.00
24031;BME280;12240;51.142;22.486;2023-02-22T00:12:18;99097.38;;;2.83;100.00
24031;BME280;12240;51.142;22.486;2023-02-22T00:14:47;99095.59;;;2.83;100.00
24031;BME280;12240;51.142;22.486;2023-02-22T00:17:16;99089.09;;;2.76;100.00
24031;BME280;12240;51.142;22.486;2023-02-22T00:19:44;99057.09;;;2.59;100.00
24031;BME280;12240;51.142;22.486;2023-02-22T00:22:12;99097.25;;;2.84;100.00
24031;BME280;12240;51.142;22.486;2023-02-22T00:24:40;99069.19;;;2.61;100.00
24031;BME280;12240;51.142;22.486;2023-02-22T00:27:09;99112.09;;;2.85;100.00
24031;BME280;12240;51.142;22.486;2023-02-22T00:29:37;99107.03;;;2.82;100.00
24031;BME280;12240;51.142;22.486;2023-02-22T00:32:05;99086.88;;;2.70;100.00
24031;BME280;12240;51.142;22.486;2023-02-22T00:34:34;99089.63;;;2.69;100.00
24031;BME280;12240;51.142;22.486;2023-02-22T00:37:02;99116.28;;;2.88;100.00
24031;BME280;12240;51.142;22.486;2023-02-22T00:39:31;99126.88;;;2.99;100.00
24031;BME280;12240;51.142;22.486;2023-02-22T00:41:59;99127.38;;;3.04;100.00
24031;BME280;12240;51.142;22.486;2023-02-22T00:44:29;99125.38;;;3.07;100.00
24031;BME280;12240;51.142;22.486;2023-02-22T00:46:57;99127.75;;;3.10;100.00
24031;BME280;12240;51.142;22.486;2023-02-22T00:49:26;99134.66;;;3.24;100.00
24031;BME280;12240;51.142;22.486;2023-02-22T00:51:55;99101.56;;;3.09;100.00
24031;BME280;12240;51.142;22.486;2023-02-22T00:54:23;99142.94;;;3.30;100.00
24031;BME280;12240;51.142;22.486;2023-02-22T00:56:52;99142.81;;;3.32;100.00
24031;BME280;12240;51.142;22.486;2023-02-22T00:59:20;99078.69;;;2.98;100.00
24031;BME280;12240;51.142;22.486;2023-02-22T01:01:49;99094.13;;;3.03;100.00
24031;BME280;12240;51.142;22.486;2023-02-22T01:04:18;99141.75;;;3.34;100.00
24031;BME280;12240;51.142;22.486;2023-02-22T01:06:46;99120.94;;;3.31;100.00
24031;BME280;12240;51.142;22.486;2023-02-22T01:09:14;99145.50;;;3.43;100.00
24031;BME280;12240;51.142;22.486;2023-02-22T01:11:43;99095.03;;;3.14;100.00
24031;BME280;12240;51.142;22.486;2023-02-22T01:14:12;99149.78;;;3.44;100.00
24031;BME280;12240;51.142;22.486;2023-02-22T01:16:42;99151.84;;;3.40;100.00
24031;BME280;12240;51.142;22.486;2023-02-22T01:19:11;99103.84;;;3.13;100.00
24031;BME280;12240;51.142;22.486;2023-02-22T01:21:40;99151.63;;;3.43;100.00
24031;BME280;12240;51.142;22.486;2023-02-22T01:24:08;99099.97;;;2.95;100.00
24031;BME280;12240;51.142;22.486;2023-02-22T01:26:36;99077.69;;;2.88;100.00
24031;BME280;12240;51.142;22.486;2023-02-22T01:29:05;99167.97;;;3.36;100.00
24031;BME280;12240;51.142;22.486;2023-02-22T01:31:34;99103.22;;;2.99;100.00
24031;BME280;12240;51.142;22.486;2023-02-22T01:34:04;99169.75;;;3.35;100.00
24031;BME280;12240;51.142;22.486;2023-02-22T01:36:32;99122.97;;;3.04;100.00
24031;BME280;12240;51.142;22.486;2023-02-22T01:39:02;99179.56;;;3.33;100.00
24031;BME280;12240;51.142;22.486;2023-02-22T01:41:31;99123.66;;;3.06;100.00
24031;BME280;12240;51.142;22.486;2023-02-22T01:44:29;99183.88;;;3.34;100.00
24031;BME280;12240;51.142;22.486;2023-02-22T01:47:01;99009.91;;;2.21;100.00
24031;BME280;12240;51.142;22.486;2023-02-22T01:49:41;99181.47;;;3.31;100.00
24031;BME280;12240;51.142;22.486;2023-02-22T01:52:18;99174.56;;;3.18;100.00
24031;BME280;12240;51.142;22.486;2023-02-22T01:54:53;99103.09;;;2.77;100.00
24031;BME280;12240;51.142;22.486;2023-02-22T01:57:31;99182.13;;;3.22;100.00
24031;BME280;12240;51.142;22.486;2023-02-22T02:00:08;99183.91;;;3.22;100.00
24031;BME280;12240;51.142;22.486;2023-02-22T02:02:55;99187.38;;;3.22;100.00
24031;BME280;12240;51.142;22.486;2023-02-22T02:05:28;99170.31;;;3.04;100.00
24031;BME280;12240;51.142;22.486;2023-02-22T02:08:11;99184.16;;;3.06;100.00
24031;BME280;12240;51.142;22.486;2023-02-22T02:10:43;99178.91;;;3.06;100.00
24031;BME280;12240;51.142;22.486;2023-02-22T02:13:11;99204.34;;;3.18;100.00
24031;BME280;12240;51.142;22.486;2023-02-22T02:15:39;99202.66;;;3.17;100.00
24031;BME280;12240;51.142;22.486;2023-02-22T02:18:10;99203.63;;;3.16;100.00
24031;BME280;12240;51.142;22.486;2023-02-22T02:21:17;99213.41;;;3.14;100.00
24031;BME280;12240;51.142;22.486;2023-02-22T02:24:03;99205.63;;;3.13;100.00
24031;BME280;12240;51.142;22.486;2023-02-22T02:32:55;99218.47;;;3.05;100.00
24031;BME280;12240;51.142;22.486;2023-02-22T02:36:09;99158.59;;;2.72;100.00
24031;BME280;12240;51.142;22.486;2023-02-22T02:41:34;99157.81;;;2.59;100.00
24031;BME280;12240;51.142;22.486;2023-02-22T02:45:10;99210.53;;;2.94;100.00
24031;BME280;12240;51.142;22.486;2023-02-22T02:47:26;99224.72;;;2.91;100.00
24031;BME280;12240;51.142;22.486;2023-02-22T02:50:05;99208.13;;;2.78;100.00
24031;BME280;12240;51.142;22.486;2023-02-22T02:52:36;99226.63;;;2.89;100.00
24031;BME280;12240;51.142;22.486;2023-02-22T02:55:07;99217.38;;;2.84;100.00
24031;BME280;12240;51.142;22.486;2023-02-22T02:57:41;99215.19;;;2.78;100.00
24031;BME280;12240;51.142;22.486;2023-02-22T03:00:09;99136.72;;;2.23;100.00
24031;BME280;12240;51.142;22.486;2023-02-22T03:06:22;99235.06;;;2.82;100.00
24031;BME280;12240;51.142;22.486;2023-02-22T03:09:38;99242.72;;;2.85;100.00
24031;BME280;12240;51.142;22.486;2023-02-22T03:26:56;99268.69;;;2.89;100.00
24031;BME280;12240;51.142;22.486;2023-02-22T03:29:30;99229.81;;;2.69;100.00
24031;BME280;12240;51.142;22.486;2023-02-22T03:32:15;99270.56;;;2.87;100.00
24031;BME280;12240;51.142;22.486;2023-02-22T03:34:50;99269.66;;;2.88;100.00
24031;BME280;12240;51.142;22.486;2023-02-22T03:37:31;99280.16;;;2.88;100.00
24031;BME280;12240;51.142;22.486;2023-02-22T03:40:03;99223.22;;;2.51;100.00
24031;BME280;12240;51.142;22.486;2023-02-22T03:42:49;99283.31;;;2.81;100.00
24031;BME280;12240;51.142;22.486;2023-02-22T03:45:21;99280.06;;;2.77;100.00
24031;BME280;12240;51.142;22.486;2023-02-22T03:48:05;99293.31;;;2.76;100.00
24031;BME280;12240;51.142;22.486;2023-02-22T03:50:37;99249.69;;;2.48;100.00
24031;BME280;12240;51.142;22.486;2023-02-22T03:53:07;99117.69;;;1.69;100.00
24031;BME280;12240;51.142;22.486;2023-02-22T03:55:38;99283.97;;;2.59;100.00
24031;BME280;12240;51.142;22.486;2023-02-22T03:58:11;99294.25;;;2.62;100.00
24031;BME280;12240;51.142;22.486;2023-02-22T04:00:41;99245.91;;;2.27;100.00
24031;BME280;12240;51.142;22.486;2023-02-22T04:03:11;99290.34;;;2.42;100.00
24031;BME280;12240;51.142;22.486;2023-02-22T04:05:39;99304.13;;;2.46;100.00
24031;BME280;12240;51.142;22.486;2023-02-22T04:08:07;99241.25;;;2.05;100.00
24031;BME280;12240;51.142;22.486;2023-02-22T04:10:36;99309.50;;;2.45;100.00
24031;BME280;12240;51.142;22.486;2023-02-22T04:13:05;99311.31;;;2.44;100.00
24031;BME280;12240;51.142;22.486;2023-02-22T04:15:40;99315.81;;;2.42;100.00
24031;BME280;12240;51.142;22.486;2023-02-22T04:18:10;99257.44;;;2.12;100.00
24031;BME280;12240;51.142;22.486;2023-02-22T04:20:38;99267.19;;;2.10;100.00
24031;BME280;12240;51.142;22.486;2023-02-22T04:23:12;99311.91;;;2.35;100.00
24031;BME280;12240;51.142;22.486;2023-02-22T04:25:41;99327.06;;;2.44;100.00
24031;BME280;12240;51.142;22.486;2023-02-22T04:28:15;99333.78;;;2.48;100.00
24031;BME280;12240;51.142;22.486;2023-02-22T04:30:52;99327.91;;;2.57;100.00
24031;BME280;12240;51.142;22.486;2023-02-22T04:33:20;99285.00;;;2.31;100.00
24031;BME280;12240;51.142;22.486;2023-02-22T04:35:48;99284.03;;;2.32;100.00
24031;BME280;12240;51.142;22.486;2023-02-22T04:38:18;99294.03;;;2.40;100.00
24031;BME280;12240;51.142;22.486;2023-02-22T04:40:51;99286.56;;;2.34;100.00
24031;BME280;12240;51.142;22.486;2023-02-22T04:43:21;99349.16;;;2.67;100.00
24031;BME280;12240;51.142;22.486;2023-02-22T04:45:52;99300.78;;;2.44;100.00
24031;BME280;12240;51.142;22.486;2023-02-22T04:48:21;99296.16;;;2.35;100.00
24031;BME280;12240;51.142;22.486;2023-02-22T04:50:49;99299.00;;;2.32;100.00
24031;BME280;12240;51.142;22.486;2023-02-22T04:53:19;99271.50;;;2.11;100.00
24031;BME280;12240;51.142;22.486;2023-02-22T04:55:48;99306.22;;;2.28;100.00
24031;BME280;12240;51.142;22.486;2023-02-22T04:58:17;99329.16;;;2.39;100.00
24031;BME280;12240;51.142;22.486;2023-02-22T05:00:45;99340.38;;;2.41;100.00
24031;BME280;12240;51.142;22.486;2023-02-22T05:03:14;99348.69;;;2.35;100.00
24031;BME280;12240;51.142;22.486;2023-02-22T05:05:42;99354.16;;;2.32;100.00
24031;BME280;12240;51.142;22.486;2023-02-22T05:08:11;99351.81;;;2.27;100.00
24031;BME280;12240;51.142;22.486;2023-02-22T05:10:39;99325.31;;;2.18;100.00
24031;BME280;12240;51.142;22.486;2023-02-22T05:13:07;99364.66;;;2.32;100.00
24031;BME280;12240;51.142;22.486;2023-02-22T05:15:37;99353.31;;;2.31;100.00
24031;BME280;12240;51.142;22.486;2023-02-22T05:18:05;99361.19;;;2.31;100.00
24031;BME280;12240;51.142;22.486;2023-02-22T05:20:34;99351.91;;;2.26;100.00
24031;BME280;12240;51.142;22.486;2023-02-22T05:23:03;99375.91;;;2.34;100.00
24031;BME280;12240;51.142;22.486;2023-02-22T05:25:32;99334.00;;;2.06;100.00
24031;BME280;12240;51.142;22.486;2023-02-22T05:28:12;99366.00;;;2.25;100.00
24031;BME280;12240;51.142;22.486;2023-02-22T05:30:42;99383.75;;;2.21;100.00
24031;BME280;12240;51.142;22.486;2023-02-22T05:33:10;99331.28;;;1.81;100.00
24031;BME280;12240;51.142;22.486;2023-02-22T05:35:39;99360.13;;;1.95;100.00
24031;BME280;12240;51.142;22.486;2023-02-22T05:38:12;99287.25;;;1.45;100.00
24031;BME280;12240;51.142;22.486;2023-02-22T05:40:43;99300.81;;;1.52;100.00
24031;BME280;12240;51.142;22.486;2023-02-22T05:43:11;99293.91;;;1.51;100.00
24031;BME280;12240;51.142;22.486;2023-02-22T05:45:39;99390.63;;;2.10;100.00
24031;BME280;12240;51.142;22.486;2023-02-22T05:48:07;99394.75;;;2.14;100.00
24031;BME280;12240;51.142;22.486;2023-02-22T05:50:36;99393.81;;;2.15;100.00
24031;BME280;12240;51.142;22.486;2023-02-22T05:53:04;99335.41;;;1.85;100.00
24031;BME280;12240;51.142;22.486;2023-02-22T05:55:33;99393.81;;;2.15;100.00
24031;BME280;12240;51.142;22.486;2023-02-22T05:58:01;99394.50;;;2.31;100.00
24031;BME280;12240;51.142;22.486;2023-02-22T06:00:32;99402.00;;;2.37;100.00
24031;BME280;12240;51.142;22.486;2023-02-22T06:03:04;99367.34;;;2.18;100.00
24031;BME280;12240;51.142;22.486;2023-02-22T06:05:34;99347.69;;;2.11;100.00
24031;BME280;12240;51.142;22.486;2023-02-22T06:08:06;99324.31;;;1.94;100.00
24031;BME280;12240;51.142;22.486;2023-02-22T06:10:35;99322.81;;;1.90;100.00
24031;BME280;12240;51.142;22.486;2023-02-22T06:13:05;99415.13;;;2.37;100.00
24031;BME280;12240;51.142;22.486;2023-02-22T06:15:34;99424.16;;;2.33;100.00
24031;BME280;12240;51.142;22.486;2023-02-22T06:18:04;99405.81;;;2.19;100.00
24031;BME280;12240;51.142;22.486;2023-02-22T06:20:32;99413.78;;;2.17;100.00
24031;BME280;12240;51.142;22.486;2023-02-22T06:23:05;99375.44;;;1.88;100.00
24031;BME280;12240;51.142;22.486;2023-02-22T06:25:34;99439.94;;;2.19;100.00
24031;BME280;12240;51.142;22.486;2023-02-22T06:28:03;99439.81;;;2.08;100.00
24031;BME280;12240;51.142;22.486;2023-02-22T06:30:32;99439.28;;;2.03;100.00
24031;BME280;12240;51.142;22.486;2023-02-22T06:33:01;99454.06;;;2.04;100.00
24031;BME280;12240;51.142;22.486;2023-02-22T06:35:29;99450.69;;;2.02;100.00
24031;BME280;12240;51.142;22.486;2023-02-22T06:37:57;99454.63;;;2.09;100.00
24031;BME280;12240;51.142;22.486;2023-02-22T06:40:27;99429.25;;;1.95;100.00
24031;BME280;12240;51.142;22.486;2023-02-22T06:42:57;99471.13;;;2.11;100.00
24031;BME280;12240;51.142;22.486;2023-02-22T06:45:27;99413.69;;;1.92;100.00
24031;BME280;12240;51.142;22.486;2023-02-22T06:47:55;99472.47;;;2.30;100.00
24031;BME280;12240;51.142;22.486;2023-02-22T06:50:28;99471.66;;;2.30;100.00
24031;BME280;12240;51.142;22.486;2023-02-22T06:52:57;99452.50;;;2.28;100.00
24031;BME280;12240;51.142;22.486;2023-02-22T06:55:29;99486.63;;;2.42;100.00
24031;BME280;12240;51.142;22.486;2023-02-22T06:57:58;99477.84;;;2.56;100.00
24031;BME280;12240;51.142;22.486;2023-02-22T07:00:29;99481.50;;;2.53;100.00
24031;BME280;12240;51.142;22.486;2023-02-22T07:02:59;99433.66;;;2.21;100.00
24031;BME280;12240;51.142;22.486;2023-02-22T07:05:28;99489.09;;;2.58;100.00
24031;BME280;12240;51.142;22.486;2023-02-22T07:08:04;99477.47;;;2.74;100.00
24031;BME280;12240;51.142;22.486;2023-02-22T07:10:35;99406.00;;;2.55;100.00
24031;BME280;12240;51.142;22.486;2023-02-22T07:13:06;99493.13;;;3.90;100.00
24031;BME280;12240;51.142;22.486;2023-02-22T07:15:36;99473.47;;;4.07;100.00
24031;BME280;12240;51.142;22.486;2023-02-22T07:18:05;99431.19;;;3.85;100.00
24031;BME280;12240;51.142;22.486;2023-02-22T07:20:34;99349.19;;;3.04;100.00
24031;BME280;12240;51.142;22.486;2023-02-22T07:23:04;99474.59;;;3.67;100.00
24031;BME280;12240;51.142;22.486;2023-02-22T07:25:34;99423.34;;;3.34;100.00
24031;BME280;12240;51.142;22.486;2023-02-22T07:28:03;99431.34;;;3.20;100.00
24031;BME280;12240;51.142;22.486;2023-02-22T07:30:32;99487.56;;;3.57;100.00
24031;BME280;12240;51.142;22.486;2023-02-22T07:33:07;99461.94;;;3.72;100.00
24031;BME280;12240;51.142;22.486;2023-02-22T07:35:48;99475.50;;;4.27;100.00
24031;BME280;12240;51.142;22.486;2023-02-22T07:38:19;99477.75;;;4.91;100.00
24031;BME280;12240;51.142;22.486;2023-02-22T07:40:48;99416.34;;;4.89;100.00
24031;BME280;12240;51.142;22.486;2023-02-22T07:43:19;99425.78;;;5.37;100.00
24031;BME280;12240;51.142;22.486;2023-02-22T07:45:50;99472.06;;;5.98;100.00
24031;BME280;12240;51.142;22.486;2023-02-22T07:48:21;99469.25;;;5.44;100.00
24031;BME280;12240;51.142;22.486;2023-02-22T07:50:49;99442.28;;;5.06;100.00
24031;BME280;12240;51.142;22.486;2023-02-22T07:53:25;99413.69;;;4.89;100.00
24031;BME280;12240;51.142;22.486;2023-02-22T07:55:58;99447.66;;;4.59;100.00
24031;BME280;12240;51.142;22.486;2023-02-22T07:58:29;99404.44;;;4.49;100.00
24031;BME280;12240;51.142;22.486;2023-02-22T08:00:58;99379.34;;;4.67;100.00
24031;BME280;12240;51.142;22.486;2023-02-22T08:03:32;99451.91;;;5.07;100.00
24031;BME280;12240;51.142;22.486;2023-02-22T08:06:06;99414.03;;;5.19;100.00
24031;BME280;12240;51.142;22.486;2023-02-22T08:08:35;99432.03;;;5.47;100.00
24031;BME280;12240;51.142;22.486;2023-02-22T08:11:04;99427.22;;;5.52;100.00
24031;BME280;12240;51.142;22.486;2023-02-22T08:13:33;99456.66;;;5.70;100.00
24031;BME280;12240;51.142;22.486;2023-02-22T08:16:02;99391.72;;;5.56;100.00
24031;BME280;12240;51.142;22.486;2023-02-22T08:18:31;99430.59;;;5.99;100.00
24031;BME280;12240;51.142;22.486;2023-02-22T08:20:59;99423.03;;;5.72;100.00
24031;BME280;12240;51.142;22.486;2023-02-22T08:23:27;99413.44;;;5.38;100.00
24031;BME280;12240;51.142;22.486;2023-02-22T08:25:55;99406.56;;;5.35;100.00
24031;BME280;12240;51.142;22.486;2023-02-22T08:28:24;99430.84;;;5.73;100.00
24031;BME280;12240;51.142;22.486;2023-02-22T08:30:52;99418.56;;;5.28;100.00
24031;BME280;12240;51.142;22.486;2023-02-22T08:33:21;99381.19;;;4.78;100.00
24031;BME280;12240;51.142;22.486;2023-02-22T08:35:51;99380.69;;;4.84;100.00
24031;BME280;12240;51.142;22.486;2023-02-22T08:38:24;99385.66;;;4.99;100.00
24031;BME280;12240;51.142;22.486;2023-02-22T08:40:54;99375.97;;;5.22;100.00
24031;BME280;12240;51.142;22.486;2023-02-22T08:43:22;99422.06;;;5.51;100.00
24031;BME280;12240;51.142;22.486;2023-02-22T08:45:51;99412.78;;;5.01;100.00
24031;BME280;12240;51.142;22.486;2023-02-22T08:48:22;99371.72;;;4.86;100.00
24031;BME280;12240;51.142;22.486;2023-02-22T08:50:50;99420.03;;;5.32;100.00
24031;BME280;12240;51.142;22.486;2023-02-22T08:53:18;99421.72;;;5.44;100.00
24031;BME280;12240;51.142;22.486;2023-02-22T08:55:47;99385.94;;;5.40;100.00
24031;BME280;12240;51.142;22.486;2023-02-22T08:58:16;99404.06;;;5.56;100.00
24031;BME280;12240;51.142;22.486;2023-02-22T09:00:44;99407.44;;;5.47;100.00
24031;BME280;12240;51.142;22.486;2023-02-22T09:03:13;99413.06;;;5.64;100.00
24031;BME280;12240;51.142;22.486;2023-02-22T09:05:43;99404.63;;;5.26;100.00
24031;BME280;12240;51.142;22.486;2023-02-22T09:08:12;99361.13;;;4.75;100.00
24031;BME280;12240;51.142;22.486;2023-02-22T09:10:42;99423.38;;;5.23;100.00
24031;BME280;12240;51.142;22.486;2023-02-22T09:13:12;99360.94;;;4.89;100.00
24031;BME280;12240;51.142;22.486;2023-02-22T09:15:41;99421.25;;;5.39;100.00
24031;BME280;12240;51.142;22.486;2023-02-22T09:18:11;99400.34;;;5.47;100.00
24031;BME280;12240;51.142;22.486;2023-02-22T09:20:41;99408.63;;;5.54;100.00
24031;BME280;12240;51.142;22.486;2023-02-22T09:23:10;99403.34;;;5.54;100.00
24031;BME280;12240;51.142;22.486;2023-02-22T09:25:38;99280.34;;;4.85;100.00
24031;BME280;12240;51.142;22.486;2023-02-22T09:28:07;99342.75;;;5.19;100.00
24031;BME280;12240;51.142;22.486;2023-02-22T09:30:36;99404.66;;;5.59;100.00
24031;BME280;12240;51.142;22.486;2023-02-22T09:33:11;99404.06;;;5.67;100.00
24031;BME280;12240;51.142;22.486;2023-02-22T09:35:42;99356.06;;;5.07;100.00
24031;BME280;12240;51.142;22.486;2023-02-22T09:38:20;99372.97;;;5.15;100.00
24031;BME280;12240;51.142;22.486;2023-02-22T09:41:19;99400.81;;;5.52;100.00
24031;BME280;12240;51.142;22.486;2023-02-22T09:47:18;99403.72;;;5.60;100.00
24031;BME280;12240;51.142;22.486;2023-02-22T09:52:35;99388.00;;;4.69;100.00
24031;BME280;12240;51.142;22.486;2023-02-22T09:55:27;99356.78;;;4.52;100.00
24031;BME280;12240;51.142;22.486;2023-02-22T09:58:07;99432.75;;;5.38;100.00
24031;BME280;12240;51.142;22.486;2023-02-22T10:00:39;99420.31;;;5.84;100.00
24031;BME280;12240;51.142;22.486;2023-02-22T10:03:33;99434.50;;;6.26;100.00
24031;BME280;12240;51.142;22.486;2023-02-22T10:06:16;99422.19;;;6.47;100.00
24031;BME280;12240;51.142;22.486;2023-02-22T10:08:54;99367.34;;;6.29;100.00
24031;BME280;12240;51.142;22.486;2023-02-22T10:11:54;99398.53;;;6.46;100.00
24031;BME280;12240;51.142;22.486;2023-02-22T10:14:47;99364.69;;;6.29;100.00
24031;BME280;12240;51.142;22.486;2023-02-22T10:23:49;99319.19;;;4.72;100.00
24031;BME280;12240;51.142;22.486;2023-02-22T10:26:27;99378.88;;;4.73;100.00
24031;BME280;12240;51.142;22.486;2023-02-22T10:31:57;99388.69;;;4.13;100.00
24031;BME280;12240;51.142;22.486;2023-02-22T10:34:50;99395.56;;;4.15;100.00
24031;BME280;12240;51.142;22.486;2023-02-22T10:37:33;99388.88;;;4.22;100.00
24031;BME280;12240;51.142;22.486;2023-02-22T10:40:30;99373.00;;;4.35;100.00
24031;BME280;12240;51.142;22.486;2023-02-22T10:43:07;99346.66;;;4.35;100.00
24031;BME280;12240;51.142;22.486;2023-02-22T10:45:36;99358.09;;;4.57;100.00
24031;BME280;12240;51.142;22.486;2023-02-22T10:48:13;99377.66;;;5.23;100.00
24031;BME280;12240;51.142;22.486;2023-02-22T10:50:44;99340.91;;;4.98;100.00
24031;BME280;12240;51.142;22.486;2023-02-22T10:53:13;99367.13;;;5.23;100.00
24031;BME280;12240;51.142;22.486;2023-02-22T10:56:07;99342.56;;;4.76;100.00
24031;BME280;12240;51.142;22.486;2023-02-22T10:59:02;99317.72;;;4.22;100.00
24031;BME280;12240;51.142;22.486;2023-02-22T11:01:37;99372.63;;;4.63;100.00
24031;BME280;12240;51.142;22.486;2023-02-22T11:04:19;99336.84;;;4.48;100.00
24031;BME280;12240;51.142;22.486;2023-02-22T11:09:29;99371.88;;;4.03;100.00
24031;BME280;12240;51.142;22.486;2023-02-22T11:12:18;99391.97;;;4.40;100.00
24031;BME280;12240;51.142;22.486;2023-02-22T11:14:47;99389.22;;;4.41;100.00
24031;BME280;12240;51.142;22.486;2023-02-22T11:17:36;99383.16;;;4.28;100.00
24031;BME280;12240;51.142;22.486;2023-02-22T11:20:37;99393.34;;;4.56;100.00
24031;BME280;12240;51.142;22.486;2023-02-22T11:23:06;99387.97;;;4.34;100.00
24031;BME280;12240;51.142;22.486;2023-02-22T11:25:40;99364.78;;;4.16;100.00
24031;BME280;12240;51.142;22.486;2023-02-22T11:28:20;99400.19;;;4.12;100.00
24031;BME280;12240;51.142;22.486;2023-02-22T11:31:41;99352.22;;;3.59;100.00
24031;BME280;12240;51.142;22.486;2023-02-22T11:34:36;99422.13;;;4.36;100.00
24031;BME280;12240;51.142;22.486;2023-02-22T11:37:32;99415.09;;;4.47;100.00
24031;BME280;12240;51.142;22.486;2023-02-22T11:42:39;99411.03;;;4.43;100.00
24031;BME280;12240;51.142;22.486;2023-02-22T11:45:21;99358.50;;;4.29;100.00
24031;BME280;12240;51.142;22.486;2023-02-22T11:47:59;99344.09;;;3.99;100.00
24031;BME280;12240;51.142;22.486;2023-02-22T11:50:39;99344.31;;;3.59;100.00
24031;BME280;12240;51.142;22.486;2023-02-22T11:59:29;99414.09;;;3.90;100.00
24031;BME280;12240;51.142;22.486;2023-02-22T12:05:48;99413.97;;;3.43;100.00
24031;BME280;12240;51.142;22.486;2023-02-22T12:08:46;99403.03;;;3.49;100.00
24031;BME280;12240;51.142;22.486;2023-02-22T12:11:36;99408.06;;;3.52;100.00
24031;BME280;12240;51.142;22.486;2023-02-22T12:14:19;99403.72;;;3.64;100.00
24031;BME280;12240;51.142;22.486;2023-02-22T12:20:22;99412.94;;;4.18;100.00
24031;BME280;12240;51.142;22.486;2023-02-22T12:26:04;99396.78;;;3.99;100.00
24031;BME280;12240;51.142;22.486;2023-02-22T12:31:43;99411.44;;;3.41;100.00
24031;BME280;12240;51.142;22.486;2023-02-22T12:34:45;99372.72;;;3.18;100.00
24031;BME280;12240;51.142;22.486;2023-02-22T12:37:17;99426.25;;;3.68;100.00
24031;BME280;12240;51.142;22.486;2023-02-22T12:55:06;99442.16;;;3.03;100.00
24031;BME280;12240;51.142;22.486;2023-02-22T12:58:12;99363.78;;;2.83;100.00
24031;BME280;12240;51.142;22.486;2023-02-22T13:01:19;99443.56;;;3.46;100.00
24031;BME280;12240;51.142;22.486;2023-02-22T13:03:49;99440.69;;;3.62;100.00
24031;BME280;12240;51.142;22.486;2023-02-22T13:07:09;99436.50;;;3.47;100.00
24031;BME280;12240;51.142;22.486;2023-02-22T13:09:58;99443.72;;;3.69;100.00
24031;BME280;12240;51.142;22.486;2023-02-22T13:13:17;99446.81;;;3.63;100.00
24031;BME280;12240;51.142;22.486;2023-02-22T13:21:53;99436.19;;;3.26;100.00
24031;BME280;12240;51.142;22.486;2023-02-22T13:24:48;99406.50;;;3.24;100.00
24031;BME280;12240;51.142;22.486;2023-02-22T13:27:32;99454.72;;;3.63;100.00
24031;BME280;12240;51.142;22.486;2023-02-22T13:30:09;99450.41;;;3.49;100.00
24031;BME280;12240;51.142;22.486;2023-02-22T13:39:12;99434.81;;;3.21;100.00
24031;BME280;12240;51.142;22.486;2023-02-22T13:52:12;99450.19;;;3.27;100.00
24031;BME280;12240;51.142;22.486;2023-02-22T13:55:00;99448.69;;;3.35;100.00
24031;BME280;12240;51.142;22.486;2023-02-22T13:57:39;99389.34;;;2.81;100.00
24031;BME280;12240;51.142;22.486;2023-02-22T14:10:56;99467.25;;;3.21;100.00
24031;BME280;12240;51.142;22.486;2023-02-22T14:13:31;99456.50;;;3.24;100.00
24031;BME280;12240;51.142;22.486;2023-02-22T14:18:41;99445.84;;;2.88;100.00
24031;BME280;12240;51.142;22.486;2023-02-22T14:21:14;99403.34;;;2.82;100.00
24031;BME280;12240;51.142;22.486;2023-02-22T14:23:46;99352.31;;;2.59;100.00
24031;BME280;12240;51.142;22.486;2023-02-22T14:26:36;99459.34;;;3.21;100.00
24031;BME280;12240;51.142;22.486;2023-02-22T14:34:14;99428.41;;;3.12;100.00
24031;BME280;12240;51.142;22.486;2023-02-22T14:37:24;99439.22;;;3.20;100.00
24031;BME280;12240;51.142;22.486;2023-02-22T14:42:48;99360.69;;;2.52;100.00
24031;BME280;12240;51.142;22.486;2023-02-22T14:45:38;99407.97;;;2.91;100.00
24031;BME280;12240;51.142;22.486;2023-02-22T14:48:34;99397.75;;;2.86;100.00
24031;BME280;12240;51.142;22.486;2023-02-22T14:51:24;99467.97;;;3.11;100.00
24031;BME280;12240;51.142;22.486;2023-02-22T14:54:04;99420.91;;;2.81;100.00
24031;BME280;12240;51.142;22.486;2023-02-22T14:59:26;99393.31;;;2.62;100.00
24031;BME280;12240;51.142;22.486;2023-02-22T15:02:11;99450.56;;;2.83;100.00
24031;BME280;12240;51.142;22.486;2023-02-22T15:04:41;99444.66;;;2.80;100.00
24031;BME280;12240;51.142;22.486;2023-02-22T15:07:25;99402.09;;;2.48;100.00
24031;BME280;12240;51.142;22.486;2023-02-22T15:13:25;99455.84;;;2.57;100.00
24031;BME280;12240;51.142;22.486;2023-02-22T15:16:03;99471.03;;;2.66;100.00
24031;BME280;12240;51.142;22.486;2023-02-22T15:18:43;99401.84;;;2.26;100.00
24031;BME280;12240;51.142;22.486;2023-02-22T15:21:18;99451.97;;;2.62;100.00
24031;BME280;12240;51.142;22.486;2023-02-22T15:24:02;99413.84;;;2.30;100.00
24031;BME280;12240;51.142;22.486;2023-02-22T15:26:37;99467.81;;;2.48;100.00
24031;BME280;12240;51.142;22.486;2023-02-22T15:29:35;99416.50;;;2.16;100.00
24031;BME280;12240;51.142;22.486;2023-02-22T15:32:30;99451.00;;;2.24;100.00
24031;BME280;12240;51.142;22.486;2023-02-22T15:38:03;99415.25;;;1.95;100.00
24031;BME280;12240;51.142;22.486;2023-02-22T15:40:38;99422.69;;;1.88;100.00
24031;BME280;12240;51.142;22.486;2023-02-22T15:43:22;99427.09;;;1.88;100.00
24031;BME280;12240;51.142;22.486;2023-02-22T15:45:51;99420.63;;;1.79;100.00
24031;BME280;12240;51.142;22.486;2023-02-22T15:48:20;99482.56;;;2.10;100.00